sensor_id;sensor_type;location;lat;lon;timestamp;pressure;altitude;pressure_sealevel;temperature;humidity
66090;BME280;53113;45.602;11.904;2022-09-17T00:00:31;100161.54;;;17.75;69.16
66090;BME280;53113;45.602;11.904;2022-09-17T00:02:56;100173.80;;;17.74;69.18
66090;BME280;53113;45.602;11.904;2022-09-17T00:05:22;100166.48;;;17.72;69.27
66090;BME280;53113;45.602;11.904;2022-09-17T00:07:50;100150.23;;;17.72;69.33
66090;BME280;53113;45.602;11.904;2022-09-17T00:10:17;100144.10;;;17.72;69.40
66090;BME280;53113;45.602;11.904;2022-09-17T00:12:44;100149.62;;;17.74;69.35
66090;BME280;53113;45.602;11.904;2022-09-17T00:15:10;100152.57;;;17.76;69.34
66090;BME280;53113;45.602;11.904;2022-09-17T00:17:36;100161.48;;;17.78;69.42
66090;BME280;53113;45.602;11.904;2022-09-17T00:20:03;100180.05;;;17.78;69.37
66090;BME280;53113;45.602;11.904;2022-09-17T00:22:29;100199.52;;;17.79;69.59
66090;BME280;53113;45.602;11.904;2022-09-17T00:24:55;100210.96;;;17.77;69.77
66090;BME280;53113;45.602;11.904;2022-09-17T00:27:21;100217.88;;;17.80;69.92
66090;BME280;53113;45.602;11.904;2022-09-17T00:29:49;100197.35;;;17.81;69.85
66090;BME280;53113;45.602;11.904;2022-09-17T00:32:15;100178.23;;;17.83;69.82
66090;BME280;53113;45.602;11.904;2022-09-17T00:34:41;100172.42;;;17.84;69.97
66090;BME280;53113;45.602;11.904;2022-09-17T00:37:07;100167.70;;;17.82;70.04
66090;BME280;53113;45.602;11.904;2022-09-17T00:39:33;100173.36;;;17.82;70.08
66090;BME280;53113;45.602;11.904;2022-09-17T00:41:59;100170.14;;;17.79;70.17
66090;BME280;53113;45.602;11.904;2022-09-17T00:47:31;100159.30;;;17.81;70.11
66090;BME280;53113;45.602;11.904;2022-09-17T00:50:11;100168.90;;;17.82;70.18
66090;BME280;53113;45.602;11.904;2022-09-17T00:53:03;100177.70;;;17.80;70.20
66090;BME280;53113;45.602;11.904;2022-09-17T00:55:36;100164.51;;;17.78;70.25
66090;BME280;53113;45.602;11.904;2022-09-17T00:58:05;100158.39;;;17.75;70.32
66090;BME280;53113;45.602;11.904;2022-09-17T01:00:33;100148.06;;;17.72;70.27
66090;BME280;53113;45.602;11.904;2022-09-17T01:02:59;100145.05;;;17.70;70.31
66090;BME280;53113;45.602;11.904;2022-09-17T01:11:23;100133.11;;;17.68;70.27
66090;BME280;53113;45.602;11.904;2022-09-17T01:16:46;100074.81;;;17.61;70.67
66090;BME280;53113;45.602;11.904;2022-09-17T01:22:12;100061.92;;;17.58;70.83
66090;BME280;53113;45.602;11.904;2022-09-17T01:27:53;100113.27;;;17.57;70.83
66090;BME280;53113;45.602;11.904;2022-09-17T01:30:49;100146.75;;;17.54;70.86
66090;BME280;53113;45.602;11.904;2022-09-17T01:38:33;100197.77;;;17.55;71.00
66090;BME280;53113;45.602;11.904;2022-09-17T01:41:09;100198.00;;;17.58;71.04
66090;BME280;53113;45.602;11.904;2022-09-17T01:43:42;100199.27;;;17.57;71.02
66090;BME280;53113;45.602;11.904;2022-09-17T01:48:50;100181.51;;;17.55;70.93
66090;BME280;53113;45.602;11.904;2022-09-17T01:51:26;100169.55;;;17.53;71.03
66090;BME280;53113;45.602;11.904;2022-09-17T01:54:02;100176.80;;;17.54;71.04
66090;BME280;53113;45.602;11.904;2022-09-17T01:56:43;100188.67;;;17.55;70.97
66090;BME280;53113;45.602;11.904;2022-09-17T01:59:23;100199.41;;;17.56;70.94
66090;BME280;53113;45.602;11.904;2022-09-17T02:01:53;100197.92;;;17.58;70.90
66090;BME280;53113;45.602;11.904;2022-09-17T02:04:25;100189.87;;;17.58;70.97
66090;BME280;53113;45.602;11.904;2022-09-17T02:07:00;100180.61;;;17.58;71.05
66090;BME280;53113;45.602;11.904;2022-09-17T02:09:31;100169.42;;;17.59;71.11
66090;BME280;53113;45.602;11.904;2022-09-17T02:12:00;100162.85;;;17.60;71.07
66090;BME280;53113;45.602;11.904;2022-09-17T02:14:35;100151.44;;;17.61;71.00
66090;BME280;53113;45.602;11.904;2022-09-17T02:17:08;100144.88;;;17.64;70.91
66090;BME280;53113;45.602;11.904;2022-09-17T02:19:38;100144.27;;;17.60;71.02
66090;BME280;53113;45.602;11.904;2022-09-17T02:25:05;100149.53;;;17.53;70.96
66090;BME280;53113;45.602;11.904;2022-09-17T02:27:59;100141.05;;;17.50;70.91
66090;BME280;53113;45.602;11.904;2022-09-17T02:30:26;100140.09;;;17.51;70.95
66090;BME280;53113;45.602;11.904;2022-09-17T02:32:53;100140.89;;;17.50;70.93
66090;BME280;53113;45.602;11.904;2022-09-17T02:35:20;100149.63;;;17.49;70.99
66090;BME280;53113;45.602;11.904;2022-09-17T02:37:46;100144.80;;;17.47;70.97
66090;BME280;53113;45.602;11.904;2022-09-17T02:40:14;100140.67;;;17.44;70.89
66090;BME280;53113;45.602;11.904;2022-09-17T02:42:50;100142.91;;;17.38;70.77
66090;BME280;53113;45.602;11.904;2022-09-17T03:04:49;100169.95;;;17.24;70.71
66090;BME280;53113;45.602;11.904;2022-09-17T03:07:17;100153.48;;;17.24;70.80
66090;BME280;53113;45.602;11.904;2022-09-17T03:09:44;100140.80;;;17.22;70.76
66090;BME280;53113;45.602;11.904;2022-09-17T03:12:10;100130.13;;;17.20;70.72
66090;BME280;53113;45.602;11.904;2022-09-17T03:14:36;100113.48;;;17.17;70.75
66090;BME280;53113;45.602;11.904;2022-09-17T03:17:02;100098.86;;;17.13;70.76
66090;BME280;53113;45.602;11.904;2022-09-17T03:19:28;100095.35;;;17.12;70.66
66090;BME280;53113;45.602;11.904;2022-09-17T03:21:54;100099.81;;;17.12;70.54
66090;BME280;53113;45.602;11.904;2022-09-17T03:24:19;100100.81;;;17.11;70.49
66090;BME280;53113;45.602;11.904;2022-09-17T03:26:45;100096.63;;;17.08;70.49
66090;BME280;53113;45.602;11.904;2022-09-17T03:29:14;100106.64;;;17.05;70.54
66090;BME280;53113;45.602;11.904;2022-09-17T03:31:40;100114.82;;;17.03;70.54
66090;BME280;53113;45.602;11.904;2022-09-17T03:34:06;100120.88;;;16.97;70.50
66090;BME280;53113;45.602;11.904;2022-09-17T03:36:32;100126.73;;;16.96;70.58
66090;BME280;53113;45.602;11.904;2022-09-17T03:38:58;100125.06;;;16.97;70.48
66090;BME280;53113;45.602;11.904;2022-09-17T03:41:24;100114.61;;;16.98;70.42
66090;BME280;53113;45.602;11.904;2022-09-17T03:43:51;100105.92;;;16.97;70.46
66090;BME280;53113;45.602;11.904;2022-09-17T03:46:17;100101.27;;;16.95;70.39
66090;BME280;53113;45.602;11.904;2022-09-17T03:48:43;100098.00;;;16.91;70.39
66090;BME280;53113;45.602;11.904;2022-09-17T03:51:10;100099.02;;;16.89;70.41
66090;BME280;53113;45.602;11.904;2022-09-17T03:53:36;100086.05;;;16.85;70.37
66090;BME280;53113;45.602;11.904;2022-09-17T03:56:03;100076.95;;;16.81;70.31
66090;BME280;53113;45.602;11.904;2022-09-17T03:58:30;100075.55;;;16.81;70.21
66090;BME280;53113;45.602;11.904;2022-09-17T04:00:56;100073.16;;;16.80;70.18
66090;BME280;53113;45.602;11.904;2022-09-17T04:03:23;100077.31;;;16.78;70.16
66090;BME280;53113;45.602;11.904;2022-09-17T04:05:50;100083.57;;;16.76;70.22
66090;BME280;53113;45.602;11.904;2022-09-17T04:08:16;100094.77;;;16.74;70.20
66090;BME280;53113;45.602;11.904;2022-09-17T04:10:42;100101.38;;;16.70;70.16
66090;BME280;53113;45.602;11.904;2022-09-17T04:13:09;100118.77;;;16.70;70.17
66090;BME280;53113;45.602;11.904;2022-09-17T04:15:35;100148.20;;;16.70;69.92
66090;BME280;53113;45.602;11.904;2022-09-17T04:18:00;100163.41;;;16.70;69.93
66090;BME280;53113;45.602;11.904;2022-09-17T04:20:26;100189.15;;;16.70;69.94
66090;BME280;53113;45.602;11.904;2022-09-17T04:22:52;100199.39;;;16.68;69.94
66090;BME280;53113;45.602;11.904;2022-09-17T04:25:18;100232.37;;;16.66;69.86
66090;BME280;53113;45.602;11.904;2022-09-17T04:27:44;100236.40;;;16.62;69.82
66090;BME280;53113;45.602;11.904;2022-09-17T04:30:12;100227.77;;;16.57;69.76
66090;BME280;53113;45.602;11.904;2022-09-17T04:32:39;100210.79;;;16.53;69.59
66090;BME280;53113;45.602;11.904;2022-09-17T04:35:06;100193.02;;;16.51;69.54
66090;BME280;53113;45.602;11.904;2022-09-17T04:37:32;100177.02;;;16.50;69.58
66090;BME280;53113;45.602;11.904;2022-09-17T04:39:58;100164.79;;;16.46;69.59
66090;BME280;53113;45.602;11.904;2022-09-17T04:42:24;100177.02;;;16.41;69.73
66090;BME280;53113;45.602;11.904;2022-09-17T04:44:50;100201.45;;;16.36;69.82
66090;BME280;53113;45.602;11.904;2022-09-17T04:47:15;100200.84;;;16.32;69.98
66090;BME280;53113;45.602;11.904;2022-09-17T04:49:41;100204.05;;;16.28;70.01
66090;BME280;53113;45.602;11.904;2022-09-17T04:52:07;100219.29;;;16.28;70.09
66090;BME280;53113;45.602;11.904;2022-09-17T04:54:32;100221.73;;;16.27;70.17
66090;BME280;53113;45.602;11.904;2022-09-17T04:56:59;100211.83;;;16.23;70.25
66090;BME280;53113;45.602;11.904;2022-09-17T04:59:25;100202.45;;;16.19;70.32
66090;BME280;53113;45.602;11.904;2022-09-17T05:01:51;100199.48;;;16.11;70.42
66090;BME280;53113;45.602;11.904;2022-09-17T05:04:16;100207.77;;;16.05;70.53
66090;BME280;53113;45.602;11.904;2022-09-17T05:06:42;100201.69;;;16.02;70.59
66090;BME280;53113;45.602;11.904;2022-09-17T05:09:07;100191.79;;;16.03;70.74
66090;BME280;53113;45.602;11.904;2022-09-17T05:11:33;100192.23;;;16.02;70.70
66090;BME280;53113;45.602;11.904;2022-09-17T05:13:59;100197.73;;;15.99;70.79
66090;BME280;53113;45.602;11.904;2022-09-17T05:16:25;100209.81;;;15.96;70.98
66090;BME280;53113;45.602;11.904;2022-09-17T05:18:50;100235.45;;;15.93;70.97
66090;BME280;53113;45.602;11.904;2022-09-17T05:21:17;100249.57;;;15.92;71.18
66090;BME280;53113;45.602;11.904;2022-09-17T05:23:43;100259.16;;;15.94;71.22
66090;BME280;53113;45.602;11.904;2022-09-17T05:26:08;100249.83;;;15.95;71.32
66090;BME280;53113;45.602;11.904;2022-09-17T05:28:34;100239.98;;;15.95;71.36
66090;BME280;53113;45.602;11.904;2022-09-17T05:31:01;100257.23;;;15.94;71.32
66090;BME280;53113;45.602;11.904;2022-09-17T05:33:27;100275.02;;;15.91;71.53
66090;BME280;53113;45.602;11.904;2022-09-17T05:35:53;100286.56;;;15.91;71.54
66090;BME280;53113;45.602;11.904;2022-09-17T05:38:19;100286.38;;;15.95;71.66
66090;BME280;53113;45.602;11.904;2022-09-17T05:40:45;100282.39;;;15.97;71.68
66090;BME280;53113;45.602;11.904;2022-09-17T05:43:11;100271.35;;;15.97;71.68
66090;BME280;53113;45.602;11.904;2022-09-17T05:45:37;100263.64;;;15.96;71.89
66090;BME280;53113;45.602;11.904;2022-09-17T05:48:04;100260.02;;;15.93;72.01
66090;BME280;53113;45.602;11.904;2022-09-17T05:50:31;100275.48;;;15.93;72.07
66090;BME280;53113;45.602;11.904;2022-09-17T05:53:06;100291.81;;;15.92;72.02
66090;BME280;53113;45.602;11.904;2022-09-17T05:55:32;100314.34;;;15.92;72.04
66090;BME280;53113;45.602;11.904;2022-09-17T05:58:00;100327.63;;;15.90;72.06
66090;BME280;53113;45.602;11.904;2022-09-17T06:00:26;100332.05;;;15.86;72.14
66090;BME280;53113;45.602;11.904;2022-09-17T06:02:55;100338.90;;;15.84;72.23
66090;BME280;53113;45.602;11.904;2022-09-17T06:05:23;100355.70;;;15.83;72.26
66090;BME280;53113;45.602;11.904;2022-09-17T06:07:49;100369.09;;;15.83;72.10
66090;BME280;53113;45.602;11.904;2022-09-17T06:10:16;100383.27;;;15.82;72.10
66090;BME280;53113;45.602;11.904;2022-09-17T06:12:42;100392.84;;;15.81;72.13
66090;BME280;53113;45.602;11.904;2022-09-17T06:15:08;100398.64;;;15.78;72.22
66090;BME280;53113;45.602;11.904;2022-09-17T06:17:34;100397.95;;;15.74;72.25
66090;BME280;53113;45.602;11.904;2022-09-17T06:20:02;100410.61;;;15.73;72.28
66090;BME280;53113;45.602;11.904;2022-09-17T06:22:28;100408.25;;;15.73;72.33
66090;BME280;53113;45.602;11.904;2022-09-17T06:24:53;100413.55;;;15.74;72.44
66090;BME280;53113;45.602;11.904;2022-09-17T06:27:19;100413.96;;;15.73;72.41
66090;BME280;53113;45.602;11.904;2022-09-17T06:29:45;100416.89;;;15.70;72.46
66090;BME280;53113;45.602;11.904;2022-09-17T06:32:11;100416.84;;;15.67;72.49
66090;BME280;53113;45.602;11.904;2022-09-17T06:34:40;100411.80;;;15.64;72.53
66090;BME280;53113;45.602;11.904;2022-09-17T06:37:05;100407.45;;;15.63;72.46
66090;BME280;53113;45.602;11.904;2022-09-17T06:39:32;100401.76;;;15.61;72.46
66090;BME280;53113;45.602;11.904;2022-09-17T06:41:57;100392.38;;;15.60;72.45
66090;BME280;53113;45.602;11.904;2022-09-17T06:44:23;100388.52;;;15.58;72.58
66090;BME280;53113;45.602;11.904;2022-09-17T06:46:49;100395.39;;;15.54;72.55
66090;BME280;53113;45.602;11.904;2022-09-17T06:49:16;100405.23;;;15.50;72.52
66090;BME280;53113;45.602;11.904;2022-09-17T06:51:43;100415.02;;;15.46;72.63
66090;BME280;53113;45.602;11.904;2022-09-17T06:54:09;100426.98;;;15.46;72.61
66090;BME280;53113;45.602;11.904;2022-09-17T06:56:35;100420.46;;;15.46;72.61
66090;BME280;53113;45.602;11.904;2022-09-17T06:59:02;100414.35;;;15.43;72.59
66090;BME280;53113;45.602;11.904;2022-09-17T07:01:27;100412.23;;;15.41;72.52
66090;BME280;53113;45.602;11.904;2022-09-17T07:03:53;100414.95;;;15.37;72.55
66090;BME280;53113;45.602;11.904;2022-09-17T07:06:19;100428.59;;;15.36;72.67
66090;BME280;53113;45.602;11.904;2022-09-17T07:08:45;100425.05;;;15.36;72.83
66090;BME280;53113;45.602;11.904;2022-09-17T07:11:12;100422.09;;;15.37;72.80
66090;BME280;53113;45.602;11.904;2022-09-17T07:13:38;100417.00;;;15.36;72.87
66090;BME280;53113;45.602;11.904;2022-09-17T07:16:05;100416.62;;;15.34;72.89
66090;BME280;53113;45.602;11.904;2022-09-17T07:18:31;100419.07;;;15.31;73.01
66090;BME280;53113;45.602;11.904;2022-09-17T07:21:01;100418.63;;;15.30;73.10
66090;BME280;53113;45.602;11.904;2022-09-17T07:23:30;100427.02;;;15.32;73.25
66090;BME280;53113;45.602;11.904;2022-09-17T07:26:01;100441.50;;;15.33;73.34
66090;BME280;53113;45.602;11.904;2022-09-17T07:28:27;100454.24;;;15.33;73.35
66090;BME280;53113;45.602;11.904;2022-09-17T07:30:53;100465.63;;;15.31;73.55
66090;BME280;53113;45.602;11.904;2022-09-17T07:33:22;100472.40;;;15.29;73.66
66090;BME280;53113;45.602;11.904;2022-09-17T07:35:56;100484.91;;;15.31;73.76
66090;BME280;53113;45.602;11.904;2022-09-17T07:38:23;100496.92;;;15.34;73.73
66090;BME280;53113;45.602;11.904;2022-09-17T07:40:56;100508.73;;;15.35;73.74
66090;BME280;53113;45.602;11.904;2022-09-17T07:43:27;100519.11;;;15.35;73.76
66090;BME280;53113;45.602;11.904;2022-09-17T07:45:56;100525.27;;;15.34;73.85
66090;BME280;53113;45.602;11.904;2022-09-17T07:48:22;100538.50;;;15.32;73.88
66090;BME280;53113;45.602;11.904;2022-09-17T07:50:48;100547.48;;;15.31;73.84
66090;BME280;53113;45.602;11.904;2022-09-17T07:53:15;100562.09;;;15.33;73.80
66090;BME280;53113;45.602;11.904;2022-09-17T07:55:41;100569.41;;;15.35;73.86
66090;BME280;53113;45.602;11.904;2022-09-17T07:58:07;100586.76;;;15.36;73.95
66090;BME280;53113;45.602;11.904;2022-09-17T08:00:33;100587.17;;;15.36;73.98
66090;BME280;53113;45.602;11.904;2022-09-17T08:02:58;100575.50;;;15.35;73.99
66090;BME280;53113;45.602;11.904;2022-09-17T08:05:24;100563.52;;;15.37;74.23
66090;BME280;53113;45.602;11.904;2022-09-17T08:07:51;100567.88;;;15.40;74.15
66090;BME280;53113;45.602;11.904;2022-09-17T08:10:18;100568.46;;;15.41;74.32
66090;BME280;53113;45.602;11.904;2022-09-17T08:12:55;100581.44;;;15.41;74.28
66090;BME280;53113;45.602;11.904;2022-09-17T08:15:21;100602.25;;;15.42;74.26
66090;BME280;53113;45.602;11.904;2022-09-17T08:17:47;100623.84;;;15.40;74.12
66090;BME280;53113;45.602;11.904;2022-09-17T08:20:14;100639.36;;;15.40;74.08
66090;BME280;53113;45.602;11.904;2022-09-17T08:22:41;100654.42;;;15.45;74.07
66090;BME280;53113;45.602;11.904;2022-09-17T08:25:08;100657.35;;;15.48;74.02
66090;BME280;53113;45.602;11.904;2022-09-17T08:27:40;100652.97;;;15.48;74.08
66090;BME280;53113;45.602;11.904;2022-09-17T08:30:06;100655.05;;;15.49;73.98
66090;BME280;53113;45.602;11.904;2022-09-17T08:32:33;100638.74;;;15.48;73.89
66090;BME280;53113;45.602;11.904;2022-09-17T08:34:59;100621.27;;;15.46;73.86
66090;BME280;53113;45.602;11.904;2022-09-17T08:37:26;100610.92;;;15.46;73.91
66090;BME280;53113;45.602;11.904;2022-09-17T08:39:55;100615.59;;;15.50;73.85
66090;BME280;53113;45.602;11.904;2022-09-17T08:42:40;100598.58;;;15.52;73.86
66090;BME280;53113;45.602;11.904;2022-09-17T08:45:11;100576.71;;;15.53;73.92
66090;BME280;53113;45.602;11.904;2022-09-17T08:47:45;100561.11;;;15.52;73.94
66090;BME280;53113;45.602;11.904;2022-09-17T08:50:14;100549.29;;;15.50;73.83
66090;BME280;53113;45.602;11.904;2022-09-17T08:58:32;100558.64;;;15.48;73.32
66090;BME280;53113;45.602;11.904;2022-09-17T09:01:30;100565.37;;;15.47;73.27
66090;BME280;53113;45.602;11.904;2022-09-17T09:07:07;100585.69;;;15.42;73.30
66090;BME280;53113;45.602;11.904;2022-09-17T09:09:40;100602.30;;;15.40;73.31
66090;BME280;53113;45.602;11.904;2022-09-17T09:12:21;100598.08;;;15.39;73.30
66090;BME280;53113;45.602;11.904;2022-09-17T09:14:55;100587.80;;;15.40;73.00
66090;BME280;53113;45.602;11.904;2022-09-17T09:17:25;100564.21;;;15.41;72.80
66090;BME280;53113;45.602;11.904;2022-09-17T09:19:53;100553.01;;;15.40;72.68
66090;BME280;53113;45.602;11.904;2022-09-17T09:22:43;100542.38;;;15.38;72.67
66090;BME280;53113;45.602;11.904;2022-09-17T09:30:31;100511.87;;;15.27;72.55
66090;BME280;53113;45.602;11.904;2022-09-17T09:33:16;100508.17;;;15.26;72.37
66090;BME280;53113;45.602;11.904;2022-09-17T09:35:43;100500.11;;;15.25;72.35
66090;BME280;53113;45.602;11.904;2022-09-17T09:38:30;100497.75;;;15.24;72.44
66090;BME280;53113;45.602;11.904;2022-09-17T09:46:14;100486.91;;;15.16;72.28
66090;BME280;53113;45.602;11.904;2022-09-17T09:56:50;100565.88;;;15.05;71.47
66090;BME280;53113;45.602;11.904;2022-09-17T09:59:19;100579.17;;;15.01;71.53
66090;BME280;53113;45.602;11.904;2022-09-17T10:01:45;100588.71;;;15.00;71.50
66090;BME280;53113;45.602;11.904;2022-09-17T10:04:18;100594.86;;;14.99;71.59
66090;BME280;53113;45.602;11.904;2022-09-17T10:06:45;100591.68;;;15.04;71.76
66090;BME280;53113;45.602;11.904;2022-09-17T10:09:12;100589.27;;;15.07;71.70
66090;BME280;53113;45.602;11.904;2022-09-17T10:11:39;100590.55;;;15.08;71.61
66090;BME280;53113;45.602;11.904;2022-09-17T10:16:39;100591.76;;;15.13;71.75
66090;BME280;53113;45.602;11.904;2022-09-17T10:21:36;100604.23;;;15.18;71.88
66090;BME280;53113;45.602;11.904;2022-09-17T10:24:19;100607.81;;;15.25;71.88
66090;BME280;53113;45.602;11.904;2022-09-17T10:26:48;100627.80;;;15.34;71.67
66090;BME280;53113;45.602;11.904;2022-09-17T10:29:16;100640.02;;;15.42;71.42
66090;BME280;53113;45.602;11.904;2022-09-17T10:31:51;100645.98;;;15.49;71.52
66090;BME280;53113;45.602;11.904;2022-09-17T10:34:21;100639.97;;;15.56;71.42
66090;BME280;53113;45.602;11.904;2022-09-17T10:36:49;100646.36;;;15.63;71.63
66090;BME280;53113;45.602;11.904;2022-09-17T10:44:37;100666.81;;;15.81;71.20
66090;BME280;53113;45.602;11.904;2022-09-17T10:49:55;100667.15;;;16.01;70.53
66090;BME280;53113;45.602;11.904;2022-09-17T10:52:32;100673.45;;;16.11;70.41
66090;BME280;53113;45.602;11.904;2022-09-17T11:08:43;100666.77;;;16.45;68.96
66090;BME280;53113;45.602;11.904;2022-09-17T11:14:38;100667.08;;;16.55;68.21
66090;BME280;53113;45.602;11.904;2022-09-17T11:25:50;100664.87;;;16.78;66.82
66090;BME280;53113;45.602;11.904;2022-09-17T11:33:58;100671.20;;;16.96;66.13
66090;BME280;53113;45.602;11.904;2022-09-17T11:36:37;100665.71;;;17.05;65.98
66090;BME280;53113;45.602;11.904;2022-09-17T11:39:46;100656.94;;;17.15;65.94
66090;BME280;53113;45.602;11.904;2022-09-17T11:42:18;100658.10;;;17.31;65.78
66090;BME280;53113;45.602;11.904;2022-09-17T11:44:59;100656.98;;;17.42;65.52
66090;BME280;53113;45.602;11.904;2022-09-17T11:47:32;100662.42;;;17.55;64.99
66090;BME280;53113;45.602;11.904;2022-09-17T11:50:03;100657.69;;;17.64;64.64
66090;BME280;53113;45.602;11.904;2022-09-17T11:52:43;100655.10;;;17.75;64.58
66090;BME280;53113;45.602;11.904;2022-09-17T11:57:51;100647.38;;;18.05;64.57
66090;BME280;53113;45.602;11.904;2022-09-17T12:00:22;100641.96;;;18.25;64.50
66090;BME280;53113;45.602;11.904;2022-09-17T12:03:08;100638.34;;;18.48;64.87
66090;BME280;53113;45.602;11.904;2022-09-17T12:05:44;100646.37;;;18.83;64.52
66090;BME280;53113;45.602;11.904;2022-09-17T12:08:24;100648.38;;;19.10;63.38
66090;BME280;53113;45.602;11.904;2022-09-17T12:13:42;100634.88;;;19.54;62.65
66090;BME280;53113;45.602;11.904;2022-09-17T12:16:20;100638.23;;;19.87;63.04
66090;BME280;53113;45.602;11.904;2022-09-17T12:19:07;100645.12;;;20.25;62.33
66090;BME280;53113;45.602;11.904;2022-09-17T12:21:42;100644.87;;;20.70;61.59
66090;BME280;53113;45.602;11.904;2022-09-17T12:33:18;100641.23;;;22.32;56.88
66090;BME280;53113;45.602;11.904;2022-09-17T12:35:32;100642.02;;;22.57;55.16
66090;BME280;53113;45.602;11.904;2022-09-17T12:41:15;100645.19;;;22.84;53.88
66090;BME280;53113;45.602;11.904;2022-09-17T12:50:04;100652.80;;;23.49;53.44
66090;BME280;53113;45.602;11.904;2022-09-17T12:55:38;100650.98;;;24.27;52.23
66090;BME280;53113;45.602;11.904;2022-09-17T13:03:43;100655.13;;;25.12;48.66
66090;BME280;53113;45.602;11.904;2022-09-17T13:12:00;100672.38;;;25.56;46.21
66090;BME280;53113;45.602;11.904;2022-09-17T13:22:49;100672.05;;;25.54;44.37
66090;BME280;53113;45.602;11.904;2022-09-17T13:25:18;100670.69;;;25.50;43.91
66090;BME280;53113;45.602;11.904;2022-09-17T13:27:46;100675.80;;;25.47;43.51
66090;BME280;53113;45.602;11.904;2022-09-17T13:30:14;100675.97;;;25.38;43.07
66090;BME280;53113;45.602;11.904;2022-09-17T13:32:42;100686.50;;;25.28;42.77
66090;BME280;53113;45.602;11.904;2022-09-17T13:40:31;100696.83;;;25.39;42.58
66090;BME280;53113;45.602;11.904;2022-09-17T13:45:26;100689.91;;;25.20;41.61
66090;BME280;53113;45.602;11.904;2022-09-17T13:48:10;100690.88;;;25.08;41.18
66090;BME280;53113;45.602;11.904;2022-09-17T13:50:40;100691.63;;;24.86;41.47
66090;BME280;53113;45.602;11.904;2022-09-17T13:55:46;100702.80;;;24.62;41.19
66090;BME280;53113;45.602;11.904;2022-09-17T14:00:57;100704.55;;;24.68;42.27
66090;BME280;53113;45.602;11.904;2022-09-17T14:13:56;100693.61;;;25.59;40.73
66090;BME280;53113;45.602;11.904;2022-09-17T14:24:45;100696.77;;;25.86;39.04
66090;BME280;53113;45.602;11.904;2022-09-17T14:32:50;100694.15;;;25.62;38.28
66090;BME280;53113;45.602;11.904;2022-09-17T14:35:22;100685.52;;;25.43;37.61
66090;BME280;53113;45.602;11.904;2022-09-17T14:37:57;100676.46;;;25.28;37.92
66090;BME280;53113;45.602;11.904;2022-09-17T14:40:25;100672.51;;;25.12;38.00
66090;BME280;53113;45.602;11.904;2022-09-17T14:42:56;100667.65;;;25.00;38.03
66090;BME280;53113;45.602;11.904;2022-09-17T14:45:41;100660.45;;;24.89;38.46
66090;BME280;53113;45.602;11.904;2022-09-17T14:48:30;100658.89;;;24.79;38.79
66090;BME280;53113;45.602;11.904;2022-09-17T14:54:48;100659.56;;;24.63;39.17
66090;BME280;53113;45.602;11.904;2022-09-17T15:07:45;100677.59;;;24.42;39.43
66090;BME280;53113;45.602;11.904;2022-09-17T15:10:16;100674.78;;;24.26;39.25
66090;BME280;53113;45.602;11.904;2022-09-17T15:12:44;100672.20;;;24.09;39.50
66090;BME280;53113;45.602;11.904;2022-09-17T15:15:22;100670.87;;;24.03;40.22
66090;BME280;53113;45.602;11.904;2022-09-17T15:17:49;100664.08;;;24.02;40.83
66090;BME280;53113;45.602;11.904;2022-09-17T15:20:20;100673.67;;;24.08;40.59
66090;BME280;53113;45.602;11.904;2022-09-17T15:23:14;100673.19;;;24.11;40.55
66090;BME280;53113;45.602;11.904;2022-09-17T15:25:43;100673.61;;;24.15;40.74
66090;BME280;53113;45.602;11.904;2022-09-17T15:30:44;100671.27;;;24.24;40.93
66090;BME280;53113;45.602;11.904;2022-09-17T15:33:11;100670.73;;;24.25;40.94
66090;BME280;53113;45.602;11.904;2022-09-17T15:35:37;100673.15;;;24.24;41.03
66090;BME280;53113;45.602;11.904;2022-09-17T15:38:23;100675.69;;;24.18;40.80
66090;BME280;53113;45.602;11.904;2022-09-17T15:40:51;100674.79;;;24.06;40.86
66090;BME280;53113;45.602;11.904;2022-09-17T15:43:31;100675.11;;;23.98;40.92
66090;BME280;53113;45.602;11.904;2022-09-17T15:46:21;100675.81;;;23.94;40.98
66090;BME280;53113;45.602;11.904;2022-09-17T15:48:48;100669.34;;;23.94;40.61
66090;BME280;53113;45.602;11.904;2022-09-17T15:51:30;100674.04;;;24.00;40.77
66090;BME280;53113;45.602;11.904;2022-09-17T15:54:02;100670.46;;;24.06;40.49
66090;BME280;53113;45.602;11.904;2022-09-17T16:04:27;100668.31;;;24.34;40.19
66090;BME280;53113;45.602;11.904;2022-09-17T16:06:57;100672.11;;;24.30;39.71
66090;BME280;53113;45.602;11.904;2022-09-17T16:09:46;100669.64;;;24.24;39.81
66090;BME280;53113;45.602;11.904;2022-09-17T16:12:24;100671.46;;;24.14;39.89
66090;BME280;53113;45.602;11.904;2022-09-17T16:14:52;100667.36;;;24.05;39.92
66090;BME280;53113;45.602;11.904;2022-09-17T16:17:45;100660.34;;;23.94;39.76
66090;BME280;53113;45.602;11.904;2022-09-17T16:20:20;100659.13;;;23.79;39.98
66090;BME280;53113;45.602;11.904;2022-09-17T16:22:47;100661.68;;;23.60;40.17
66090;BME280;53113;45.602;11.904;2022-09-17T16:25:15;100657.52;;;23.41;40.17
66090;BME280;53113;45.602;11.904;2022-09-17T16:27:49;100657.63;;;23.17;40.37
66090;BME280;53113;45.602;11.904;2022-09-17T16:30:20;100659.73;;;22.89;40.47
66090;BME280;53113;45.602;11.904;2022-09-17T16:32:46;100657.73;;;22.60;40.84
66090;BME280;53113;45.602;11.904;2022-09-17T16:35:14;100657.20;;;22.35;41.27
66090;BME280;53113;45.602;11.904;2022-09-17T16:37:40;100656.48;;;22.13;41.54
66090;BME280;53113;45.602;11.904;2022-09-17T16:40:11;100654.60;;;21.92;41.98
66090;BME280;53113;45.602;11.904;2022-09-17T16:42:38;100654.75;;;21.68;42.28